Paulistana II — 00 — position and weather

sailwx.info

Track history (hours):
 
Tides and Currents Weather Stations Pressure Air Temp Water Temp Dewpoint Dewpoint Depression Visibility Wind Speed Wind Dir Waves Ship Positions

Paulistana II

Last reported at 2014-Aug-30 07:33 UTC. Time now 2014-Aug-30 08:30 UTC.
Position N 30°31' E 122°10'.

Length 6 m.

Type: Pollution control. MMSI: 316014038.

Date/timePositionNaut miles runAvg speedWind from/ knotsBaromVisibWave heightAir tempDewpointWater temp
2014-Aug-30 07:33N 30°31' E 122°10'9 8.9
2014-Aug-30 06:33N 30°27' E 122°01'5571967.2
2014-Aug-30 06:16N 39°10' E 118°07'6 8.0
2014-Aug-30 05:33N 39°05' E 118°04'55533843.5
2014-Aug-30 05:32N 30°23' E 121°53'6353497.7
2014-Aug-30 05:21N 23°03' E 113°21'7 8.4
2014-Aug-30 04:33N 23°05' E 113°28'6217287.1
2014-Aug-30 04:28N 30°15' E 121°49'624661.1
2014-Aug-30 03:31N 22°56' E 113°33'6152169.2
2014-Aug-30 03:14N 30°01' E 121°48'5663325.9
2014-Aug-30 03:04N 38°56' E 118°01'9911327.5
2014-Aug-30 02:19N 22°52' E 113°33'6092752.2
2014-Aug-30 02:06N 29°56' E 121°41'0 0.3
2014-Aug-30 01:24N 29°56' E 121°41'570185.7
2014-Aug-29 22:20N 38°55' E 117°55'2 2.8
2014-Aug-29 21:29N 38°55' E 117°52'5 5.8
2014-Aug-29 20:33N 38°57' E 117°46'482154.6
2014-Aug-29 17:26N 31°30' E 121°26'7 7.4
2014-Aug-29 16:33N 31°25' E 121°31'6 6.2
2014-Aug-29 15:33N 31°19' E 121°33'49560.0
2014-Aug-29 07:18N 38°58' E 117°44'1 1.4
2014-Aug-29 06:33N 38°59' E 117°43'1345.9
2014-Aug-29 06:15N 39°07' E 117°56'1217.3
2014-Aug-29 05:33N 38°56' E 117°51'9783.3
2014-Aug-29 05:33N 39°05' E 117°52'1 0.6
2014-Aug-29 04:32N 39°05' E 117°51'9963656.2
2014-Aug-29 04:16N 22°53' E 113°34'9856153.5
2014-Aug-29 04:06N 38°51' E 117°57'1425.7
2014-Aug-29 03:33N 39°05' E 117°52'99229282.7
2014-Aug-29 03:31N 22°57' E 113°32'980996.9
2014-Aug-29 02:32N 38°50' E 117°58'974438239.1
2014-Aug-29 02:32N 23°04' E 113°29'986114535.2
2014-Aug-29 02:32N 39°04' E 117°51'0 0.2
2014-Aug-29 01:33N 39°04' E 117°51'1413.6
2014-Aug-29 00:33N 38°52' E 117°57'5 3.3
2014-Aug-28 23:09N 38°55' E 117°53'5 8.0
2014-Aug-28 22:33N 38°57' E 117°47'51771620.7
2014-Aug-28 19:22N 49°18' W 122°54'0 0.0
2014-Aug-28 18:33N 49°18' W 122°54'0 0.1
2014-Aug-28 17:33N 49°18' W 122°54'408398.2
2014-Aug-28 16:32N 54°19' W 130°19'40917303.4
2014-Aug-28 16:30N 49°18' W 122°54'409418.6
2014-Aug-28 15:32N 54°19' W 130°19'548135937.8
2014-Aug-28 15:22N 24°25' E 118°02'6 7.8
2014-Aug-28 14:33N 24°22' E 118°08'5479281766.0
2014-Aug-28 14:32N 54°19' W 130°19'0 0.0
2014-Aug-28 13:32N 54°19' W 130°19'0 0.0
2014-Aug-28 12:32N 54°19' W 130°19'0 0.0
2014-Aug-28 11:29N 54°19' W 130°19'0 0.0
2014-Aug-28 10:29N 54°19' W 130°19'0 0.0
2014-Aug-28 09:26N 54°19' W 130°19'0 0.0
2014-Aug-28 08:05N 54°19' W 130°19'46778778.1
2014-Aug-28 07:33N 39°10' E 118°07'2274.5
2014-Aug-28 07:15N 38°59' E 117°43'1 1.3
2014-Aug-28 06:33N 38°58' E 117°43'4703211630.9
2014-Aug-28 06:32N 54°19' W 130°19'502367478.8
2014-Aug-28 06:27N 29°56' E 121°41'342380.7
2014-Aug-28 05:33N 24°47' E 118°56'8503058302.5
2014-Aug-28 05:33N 38°55' E 117°52'4700170893.1
2014-Aug-28 05:32N 54°19' W 130°19'54125568.4
2014-Aug-28 04:33N 24°53' E 119°02'541242172.5
2014-Aug-28 04:26N 54°19' W 130°19'0 0.0
2014-Aug-28 03:32N 54°19' W 130°19'470129486.5
2014-Aug-28 03:22N 38°50' E 117°56'47015000.1
2014-Aug-28 02:26N 54°19' W 130°19'470323582.4
2014-Aug-28 02:14N 38°50' E 117°53'47036716.4
2014-Aug-28 01:32N 54°19' W 130°19'4680140410.9
2014-Aug-28 01:30N 39°07' E 118°05'1961.5
2014-Aug-28 01:12N 38°50' E 117°55'8 8.4
2014-Aug-28 00:11N 38°58' E 117°58'812.2
2014-Aug-27 23:30N 38°50' E 117°56'2 2.0
2014-Aug-27 22:31N 38°52' E 117°56'619.8
2014-Aug-27 22:12N 38°50' E 117°48'51793144.1
2014-Aug-27 20:33N 49°18' W 122°58'515812495.1
2014-Aug-27 20:09N 39°03' E 118°03'4 6.1
2014-Aug-27 19:33N 39°06' E 118°05'5152247312.7
2014-Aug-27 19:31N 49°18' W 122°59'0 0.1
2014-Aug-27 18:33N 49°18' W 122°59'406394.7
2014-Aug-27 17:32N 54°19' W 130°19'40714370.2
2014-Aug-27 17:30N 49°17' W 122°58'0 0.0
2014-Aug-27 16:30N 49°17' W 122°58'4075793.5
2014-Aug-27 16:26N 54°19' W 130°19'0 0.0
2014-Aug-27 15:32N 54°19' W 130°19'0 0.0
2014-Aug-27 14:32N 54°19' W 130°19'0 0.0
2014-Aug-27 13:20N 54°19' W 130°19'0 0.0
2014-Aug-27 12:32N 54°19' W 130°19'0 0.0
2014-Aug-27 11:32N 54°19' W 130°19'0 0.0
2014-Aug-27 10:32N 54°19' W 130°19'4969259243.4
2014-Aug-27 10:31N 31°08' E 121°28'49695067.4
2014-Aug-27 09:32N 54°19' W 130°19'0 0.0
2014-Aug-27 08:32N 54°19' W 130°19'0 0.0
2014-Aug-27 07:29N 54°19' W 130°19'0 0.0
2014-Aug-27 06:26N 54°19' W 130°19'0 0.0
2014-Aug-27 05:32N 54°19' W 130°19'0 0.0
2014-Aug-27 04:32N 54°19' W 130°19'0 0.0
2014-Aug-27 03:32N 54°19' W 130°19'0 0.0
2014-Aug-27 02:32N 54°19' W 130°19'0 0.0
2014-Aug-27 01:32N 54°19' W 130°19'47062116.5
2014-Aug-26 23:18N 38°47' E 117°53'3 1.7
2014-Aug-26 21:31N 38°50' E 117°50'47062149.7
2014-Aug-26 19:20N 54°19' W 130°19'49511736.2
2014-Aug-26 16:29N 31°31' E 121°24'7 7.4
2014-Aug-26 15:33N 31°26' E 121°30'4791388.2
2014-Aug-26 15:12N 38°51' E 117°53'484712.5
2014-Aug-26 14:31N 31°21' E 121°32'4841835.9
2014-Aug-26 14:16N 38°50' E 117°50'1 1.5
2014-Aug-26 13:30N 38°50' E 117°48'3 2.8
2014-Aug-26 12:32N 38°51' E 117°51'877.5
2014-Aug-26 12:26N 38°55' E 117°59'3 2.9
2014-Aug-26 11:31N 38°57' E 117°57'7115.6
2014-Aug-26 11:27N 39°02' E 118°04'3 3.3
2014-Aug-26 10:33N 39°04' E 118°02'6198.5
2014-Aug-26 10:31N 39°10' E 118°07'2 2.2
2014-Aug-26 09:33N 39°11' E 118°08'50282.1
2014-Aug-26 03:27N 31°19' E 121°33'4 4.4
2014-Aug-26 02:33N 31°21' E 121°30'4942775.7
2014-Aug-26 02:23N 39°06' E 118°05'492599.6
2014-Aug-26 01:33N 31°24' E 121°31'851395.9
2014-Aug-26 01:30N 30°01' E 121°48'57347941.6
2014-Aug-26 01:29N 39°03' E 118°03'484478.8
2014-Aug-26 00:28N 31°28' E 121°26'80309.0
2014-Aug-26 00:13N 30°10' E 121°48'14338.6
2014-Aug-25 20:31N 31°59' E 120°01'7 6.2
2014-Aug-25 19:26N 31°57' E 120°08'5 6.0
2014-Aug-25 18:33N 31°56' E 120°14'4 4.4
2014-Aug-25 17:33N 31°58' E 120°18'3 3.1
2014-Aug-25 16:33N 31°60' E 120°22'1 3.1
2014-Aug-25 16:17N 31°60' E 120°21'4 5.7
2014-Aug-25 15:33N 32°02' E 120°25'3 3.0
2014-Aug-25 14:33N 32°04' E 120°27'3 3.1
2014-Aug-25 13:33N 32°04' E 120°31'3 3.1
2014-Aug-25 12:33N 32°02' E 120°34'3 3.3
2014-Aug-25 11:33N 32°00' E 120°37'1466.0
2014-Aug-25 11:21N 32°00' E 120°21'1721.2
2014-Aug-25 10:32N 32°00' E 120°41'14973.9
2014-Aug-25 08:31N 29°50' E 122°06'6 6.4
2014-Aug-25 07:31N 29°56' E 122°05'10120.2
2014-Aug-25 02:32N 31°31' E 121°25'6 5.7
2014-Aug-25 01:33N 31°27' E 121°29'4 3.6
2014-Aug-25 00:30N 31°25' E 121°33'0 0.0
2014-Aug-24 23:33N 31°25' E 121°33'0 0.0
2014-Aug-24 22:32N 31°25' E 121°33'0 0.0
2014-Aug-24 21:34N 31°25' E 121°33'0 0.0
2014-Aug-24 20:33N 31°25' E 121°33'1 1.3
2014-Aug-24 19:33N 31°24' E 121°32'2 2.2
2014-Aug-24 18:33N 31°22' E 121°30'0 0.0
2014-Aug-24 17:33N 31°22' E 121°30'0 0.0
2014-Aug-24 16:33N 31°22' E 121°30'0 0.0
2014-Aug-24 15:33N 31°22' E 121°30'722174.3
2014-Aug-24 15:31N 30°12' E 121°49'0 0.0
2014-Aug-24 14:33N 30°12' E 121°49'7219904.6
2014-Aug-24 14:33N 31°22' E 121°30'6 5.7
2014-Aug-24 13:32N 31°28' E 121°28'7615141.7
2014-Aug-24 13:32N 30°14' E 121°48'7271.2
2014-Aug-24 12:31N 31°25' E 121°33'0 0.1
2014-Aug-24 11:34N 31°25' E 121°33'62294.2
2014-Aug-24 11:21N 30°28' E 122°00'6272.1
2014-Aug-24 10:29N 31°25' E 121°33'612457.1
2014-Aug-24 10:28N 30°32' E 122°09'1315109.5
2014-Aug-24 10:26N 31°56' E 120°12'128146.2
2014-Aug-24 09:33N 30°40' E 122°14'57901.4
2014-Aug-24 09:30N 31°25' E 121°33'5357.0
2014-Aug-24 08:33N 30°49' E 122°19'536830.9
2014-Aug-24 08:33N 31°24' E 121°32'226.6
2014-Aug-24 08:29N 31°23' E 121°30'5760.8
2014-Aug-24 07:33N 30°53' E 122°27'11658.0
2014-Aug-24 05:33N 32°00' E 120°36'7 7.3
2014-Aug-24 04:33N 32°04' E 120°29'4416591.7
2014-Aug-24 04:29N 39°08' E 117°57'440225.3
2014-Aug-24 02:31N 31°59' E 120°01'4 4.3
2014-Aug-24 01:33N 31°58' E 120°05'5 4.6
2014-Aug-24 00:33N 31°57' E 120°11'4 4.3
2014-Aug-23 23:33N 31°57' E 120°16'5 4.8
2014-Aug-23 22:33N 31°60' E 120°20'4 4.3
2014-Aug-23 21:34N 32°01' E 120°25'6748462.1
2014-Aug-23 21:33N 31°23' E 121°30'6564.6
2014-Aug-23 20:33N 32°02' E 120°30'663447.0
2014-Aug-23 20:32N 31°24' E 121°34'6162.1
2014-Aug-23 19:33N 32°01' E 120°36'44627.8
2014-Aug-23 03:32N 39°10' E 118°07'7 6.8
2014-Aug-23 02:33N 39°08' E 117°59'4 4.2
2014-Aug-23 01:33N 39°05' E 117°56'2 2.0
2014-Aug-23 00:33N 39°03' E 117°55'3 3.4
2014-Aug-22 23:33N 38°59' E 117°56'6 2.9
2014-Aug-22 21:33N 38°56' E 117°50'4362154.8
2014-Aug-22 21:21N 32°04' E 120°45'438149.2
2014-Aug-22 18:25N 39°03' E 118°11'5 5.9
2014-Aug-22 17:32N 39°08' E 118°08'4 4.3
2014-Aug-22 16:33N 39°12' E 118°08'25975.3
2014-Aug-22 13:07N 36°53' E 122°45'610.0
2014-Aug-22 12:31N 36°59' E 122°46'24058.5
2014-Aug-22 08:25N 38°49' E 118°16'2466.0
2014-Aug-22 08:04N 39°12' E 118°08'228448.0
2014-Aug-22 07:33N 37°37' E 122°32'228821463.9
2014-Aug-22 07:33N 39°10' E 118°07'4411052.3
2014-Aug-22 07:08N 32°03' E 120°25'5 7.0
2014-Aug-22 06:25N 32°04' E 120°31'3511372.9
2014-Aug-22 06:09N 37°44' E 122°20'229379.1
2014-Aug-22 05:33N 38°58' E 117°43'2234870.6
2014-Aug-22 05:30N 37°48' E 122°14'355865.1
2014-Aug-22 05:06N 32°00' E 120°42'438804.9
2014-Aug-22 04:33N 38°56' E 117°51'14332.0
2014-Aug-22 04:31N 39°08' E 118°00'1236.8
2014-Aug-22 04:11N 38°57' E 118°06'1015.8
2014-Aug-22 03:32N 38°54' E 117°53'2 1.9
2014-Aug-22 02:31N 38°52' E 117°54'2 2.0
2014-Aug-22 01:33N 38°51' E 117°52'1 0.9
2014-Aug-22 00:29N 38°52' E 117°53'483417.7
2014-Aug-21 23:20N 31°22' E 121°30'484597.3
2014-Aug-21 22:31N 38°53' E 117°54'482434073.6
2014-Aug-21 22:31N 31°24' E 121°31'6 5.9
2014-Aug-21 21:30N 31°28' E 121°26'4791746.6
2014-Aug-21 21:14N 38°55' E 117°54'5 7.1
2014-Aug-21 20:33N 38°56' E 117°48'48759.4
2014-Aug-21 12:21N 31°24' E 121°30'534134.6
2014-Aug-21 08:23N 40°18' E 121°55'8 9.1
2014-Aug-21 07:33N 40°18' E 122°05'20753289.2
2014-Aug-21 07:33N 39°04' E 117°53'10107.9
2014-Aug-21 07:28N 38°59' E 117°43'1719.3
2014-Aug-21 06:33N 39°08' E 118°02'163860.2
2014-Aug-21 06:33N 38°57' E 117°47'21536822.6
2014-Aug-21 06:33N 40°18' E 122°05'5562204.8
2014-Aug-21 06:18N 31°03' E 121°29'556744.0
2014-Aug-21 05:33N 40°18' E 122°05'211987.5
2014-Aug-21 05:20N 38°54' E 117°54'2 2.6
2014-Aug-21 04:33N 38°52' E 117°53'213255086.8
2014-Aug-21 04:33N 40°18' E 122°05'5567253.6
2014-Aug-21 04:28N 31°03' E 121°29'5141707.6
2014-Aug-21 04:10N 39°10' E 118°07'2233.1
2014-Aug-21 03:30N 38°51' E 117°52'21313969.4
2014-Aug-21 03:29N 40°18' E 122°05'55273650.4
2014-Aug-21 03:29N 31°07' E 121°27'50942646.0
2014-Aug-21 03:28N 39°07' E 118°01'1818.6
2014-Aug-21 02:30N 38°50' E 117°53'21316003.3
2014-Aug-21 02:29N 40°18' E 122°05'0 0.0
2014-Aug-21 00:23N 40°18' E 122°05'0 0.0
2014-Aug-20 23:29N 40°18' E 122°05'0 0.0
2014-Aug-20 22:29N 40°18' E 122°05'502537.7
2014-Aug-20 21:33N 32°01' E 120°44'4346797.6
2014-Aug-20 21:29N 38°53' E 117°55'21169039.3
2014-Aug-20 21:29N 40°18' E 122°05'214229.2
2014-Aug-20 20:33N 38°56' E 117°48'872510469965.2
2014-Aug-20 20:33N 41°19' W 072°21'9304198189.5
2014-Aug-20 20:30N 31°60' E 120°36'50324486.2
2014-Aug-20 20:29N 40°18' E 122°05'88319478.6
2014-Aug-20 19:33N 41°18' W 072°21'9297656291.6
2014-Aug-20 19:32N 32°02' E 120°29'5029321.1
2014-Aug-20 19:29N 40°18' E 122°05'88329490.7
2014-Aug-20 18:33N 41°18' W 072°21'883251613.4
2014-Aug-20 18:23N 40°18' E 122°05'883110654.6
2014-Aug-20 17:33N 41°18' W 072°21'8831124679.2
2014-Aug-20 17:29N 40°18' E 122°05'88309424.5
2014-Aug-20 16:33N 41°19' W 072°21'8830140039.1
2014-Aug-20 16:29N 40°18' E 122°05'88299522.4
2014-Aug-20 15:33N 41°20' W 072°21'882950695.0
2014-Aug-20 15:23N 40°18' E 122°05'882910472.1
2014-Aug-20 14:32N 41°22' W 072°23'8829327658.4
2014-Aug-20 14:31N 40°18' E 122°05'213906.9
2014-Aug-20 14:17N 38°52' E 117°53'873212128.1
2014-Aug-20 13:33N 41°20' W 072°21'8829211902.9
2014-Aug-20 13:31N 40°18' E 122°05'2096470.9
2014-Aug-20 13:29N 38°57' E 117°56'433458.0
2014-Aug-20 12:32N 32°02' E 120°27'50222612.2
2014-Aug-20 12:31N 40°18' E 122°05'2034734.1
2014-Aug-20 12:28N 39°03' E 118°01'439475.5
2014-Aug-20 11:33N 31°59' E 120°21'50614462.8
2014-Aug-20 11:31N 40°18' E 122°05'5341405.3
2014-Aug-20 11:08N 31°24' E 121°30'72125.3
2014-Aug-20 10:33N 31°56' E 120°14'43821595.8
2014-Aug-20 10:32N 38°57' E 117°47'2158791.2
2014-Aug-20 10:31N 40°18' E 122°05'511521.2
2014-Aug-20 09:32N 31°57' E 120°06'51123566.4
2014-Aug-20 09:31N 40°18' E 122°05'509511.8
2014-Aug-20 08:31N 31°59' E 119°59'50922614.9
2014-Aug-20 08:30N 40°18' E 122°05'  
Track history (hours):
 
Tides and Currents Weather Stations Pressure Air Temp Water Temp Dewpoint Dewpoint Depression Visibility Wind Speed Wind Dir Waves Ship Positions

Paulistana II

Last reported at 2014-Aug-30 07:33 UTC. Time now 2014-Aug-30 08:30 UTC.
Position N 30°31' E 122°10'.

Length 6 m.

Type: Pollution control. MMSI: 316014038.

Date/timePositionNaut miles runAvg speedWind from/ knotsBaromVisibWave heightAir tempDewpointWater temp
2014-Aug-30 07:33N 30°31' E 122°10'9 8.9
2014-Aug-30 06:33N 30°27' E 122°01'5571967.2
2014-Aug-30 06:16N 39°10' E 118°07'6 8.0
2014-Aug-30 05:33N 39°05' E 118°04'55533843.5
2014-Aug-30 05:32N 30°23' E 121°53'6353497.7
2014-Aug-30 05:21N 23°03' E 113°21'7 8.4
2014-Aug-30 04:33N 23°05' E 113°28'6217287.1
2014-Aug-30 04:28N 30°15' E 121°49'624661.1
2014-Aug-30 03:31N 22°56' E 113°33'6152169.2
2014-Aug-30 03:14N 30°01' E 121°48'5663325.9
2014-Aug-30 03:04N 38°56' E 118°01'9911327.5
2014-Aug-30 02:19N 22°52' E 113°33'6092752.2
2014-Aug-30 02:06N 29°56' E 121°41'0 0.3
2014-Aug-30 01:24N 29°56' E 121°41'570185.7
2014-Aug-29 22:20N 38°55' E 117°55'2 2.8
2014-Aug-29 21:29N 38°55' E 117°52'5 5.8
2014-Aug-29 20:33N 38°57' E 117°46'482154.6
2014-Aug-29 17:26N 31°30' E 121°26'7 7.4
2014-Aug-29 16:33N 31°25' E 121°31'6 6.2
2014-Aug-29 15:33N 31°19' E 121°33'49560.0
2014-Aug-29 07:18N 38°58' E 117°44'1 1.4
2014-Aug-29 06:33N 38°59' E 117°43'1345.9
2014-Aug-29 06:15N 39°07' E 117°56'1217.3
2014-Aug-29 05:33N 38°56' E 117°51'9783.3
2014-Aug-29 05:33N 39°05' E 117°52'1 0.6
2014-Aug-29 04:32N 39°05' E 117°51'9963656.2
2014-Aug-29 04:16N 22°53' E 113°34'9856153.5
2014-Aug-29 04:06N 38°51' E 117°57'1425.7
2014-Aug-29 03:33N 39°05' E 117°52'99229282.7
2014-Aug-29 03:31N 22°57' E 113°32'980996.9
2014-Aug-29 02:32N 38°50' E 117°58'974438239.1
2014-Aug-29 02:32N 23°04' E 113°29'986114535.2
2014-Aug-29 02:32N 39°04' E 117°51'0 0.2
2014-Aug-29 01:33N 39°04' E 117°51'1413.6
2014-Aug-29 00:33N 38°52' E 117°57'5 3.3
2014-Aug-28 23:09N 38°55' E 117°53'5 8.0
2014-Aug-28 22:33N 38°57' E 117°47'51771620.7
2014-Aug-28 19:22N 49°18' W 122°54'0 0.0
2014-Aug-28 18:33N 49°18' W 122°54'0 0.1
2014-Aug-28 17:33N 49°18' W 122°54'408398.2
2014-Aug-28 16:32N 54°19' W 130°19'40917303.4
2014-Aug-28 16:30N 49°18' W 122°54'409418.6
2014-Aug-28 15:32N 54°19' W 130°19'548135937.8
2014-Aug-28 15:22N 24°25' E 118°02'6 7.8
2014-Aug-28 14:33N 24°22' E 118°08'5479281766.0
2014-Aug-28 14:32N 54°19' W 130°19'0 0.0
2014-Aug-28 13:32N 54°19' W 130°19'0 0.0
2014-Aug-28 12:32N 54°19' W 130°19'0 0.0
2014-Aug-28 11:29N 54°19' W 130°19'0 0.0
2014-Aug-28 10:29N 54°19' W 130°19'0 0.0
2014-Aug-28 09:26N 54°19' W 130°19'0 0.0
2014-Aug-28 08:05N 54°19' W 130°19'46778778.1
2014-Aug-28 07:33N 39°10' E 118°07'2274.5
2014-Aug-28 07:15N 38°59' E 117°43'1 1.3
2014-Aug-28 06:33N 38°58' E 117°43'4703211630.9
2014-Aug-28 06:32N 54°19' W 130°19'502367478.8
2014-Aug-28 06:27N 29°56' E 121°41'342380.7
2014-Aug-28 05:33N 24°47' E 118°56'8503058302.5
2014-Aug-28 05:33N 38°55' E 117°52'4700170893.1
2014-Aug-28 05:32N 54°19' W 130°19'54125568.4
2014-Aug-28 04:33N 24°53' E 119°02'541242172.5
2014-Aug-28 04:26N 54°19' W 130°19'0 0.0
2014-Aug-28 03:32N 54°19' W 130°19'470129486.5
2014-Aug-28 03:22N 38°50' E 117°56'47015000.1
2014-Aug-28 02:26N 54°19' W 130°19'470323582.4
2014-Aug-28 02:14N 38°50' E 117°53'47036716.4
2014-Aug-28 01:32N 54°19' W 130°19'4680140410.9
2014-Aug-28 01:30N 39°07' E 118°05'1961.5
2014-Aug-28 01:12N 38°50' E 117°55'8 8.4
2014-Aug-28 00:11N 38°58' E 117°58'812.2
2014-Aug-27 23:30N 38°50' E 117°56'2 2.0
2014-Aug-27 22:31N 38°52' E 117°56'619.8
2014-Aug-27 22:12N 38°50' E 117°48'51793144.1
2014-Aug-27 20:33N 49°18' W 122°58'515812495.1
2014-Aug-27 20:09N 39°03' E 118°03'4 6.1
2014-Aug-27 19:33N 39°06' E 118°05'5152247312.7
2014-Aug-27 19:31N 49°18' W 122°59'0 0.1
2014-Aug-27 18:33N 49°18' W 122°59'406394.7
2014-Aug-27 17:32N 54°19' W 130°19'40714370.2
2014-Aug-27 17:30N 49°17' W 122°58'0 0.0
2014-Aug-27 16:30N 49°17' W 122°58'4075793.5
2014-Aug-27 16:26N 54°19' W 130°19'0 0.0
2014-Aug-27 15:32N 54°19' W 130°19'0 0.0
2014-Aug-27 14:32N 54°19' W 130°19'0 0.0
2014-Aug-27 13:20N 54°19' W 130°19'0 0.0
2014-Aug-27 12:32N 54°19' W 130°19'0 0.0
2014-Aug-27 11:32N 54°19' W 130°19'0 0.0
2014-Aug-27 10:32N 54°19' W 130°19'4969259243.4
2014-Aug-27 10:31N 31°08' E 121°28'49695067.4
2014-Aug-27 09:32N 54°19' W 130°19'0 0.0
2014-Aug-27 08:32N 54°19' W 130°19'0 0.0
2014-Aug-27 07:29N 54°19' W 130°19'0 0.0
2014-Aug-27 06:26N 54°19' W 130°19'0 0.0
2014-Aug-27 05:32N 54°19' W 130°19'0 0.0
2014-Aug-27 04:32N 54°19' W 130°19'0 0.0
2014-Aug-27 03:32N 54°19' W 130°19'0 0.0
2014-Aug-27 02:32N 54°19' W 130°19'0 0.0
2014-Aug-27 01:32N 54°19' W 130°19'47062116.5
2014-Aug-26 23:18N 38°47' E 117°53'3 1.7
2014-Aug-26 21:31N 38°50' E 117°50'47062149.7
2014-Aug-26 19:20N 54°19' W 130°19'49511736.2
2014-Aug-26 16:29N 31°31' E 121°24'7 7.4
2014-Aug-26 15:33N 31°26' E 121°30'4791388.2
2014-Aug-26 15:12N 38°51' E 117°53'484712.5
2014-Aug-26 14:31N 31°21' E 121°32'4841835.9
2014-Aug-26 14:16N 38°50' E 117°50'1 1.5
2014-Aug-26 13:30N 38°50' E 117°48'3 2.8
2014-Aug-26 12:32N 38°51' E 117°51'877.5
2014-Aug-26 12:26N 38°55' E 117°59'3 2.9
2014-Aug-26 11:31N 38°57' E 117°57'7115.6
2014-Aug-26 11:27N 39°02' E 118°04'3 3.3
2014-Aug-26 10:33N 39°04' E 118°02'6198.5
2014-Aug-26 10:31N 39°10' E 118°07'2 2.2
2014-Aug-26 09:33N 39°11' E 118°08'50282.1
2014-Aug-26 03:27N 31°19' E 121°33'4 4.4
2014-Aug-26 02:33N 31°21' E 121°30'4942775.7
2014-Aug-26 02:23N 39°06' E 118°05'492599.6
2014-Aug-26 01:33N 31°24' E 121°31'851395.9
2014-Aug-26 01:30N 30°01' E 121°48'57347941.6
2014-Aug-26 01:29N 39°03' E 118°03'484478.8
2014-Aug-26 00:28N 31°28' E 121°26'80309.0
2014-Aug-26 00:13N 30°10' E 121°48'14338.6
2014-Aug-25 20:31N 31°59' E 120°01'7 6.2
2014-Aug-25 19:26N 31°57' E 120°08'5 6.0
2014-Aug-25 18:33N 31°56' E 120°14'4 4.4
2014-Aug-25 17:33N 31°58' E 120°18'3 3.1
2014-Aug-25 16:33N 31°60' E 120°22'1 3.1
2014-Aug-25 16:17N 31°60' E 120°21'4 5.7
2014-Aug-25 15:33N 32°02' E 120°25'3 3.0
2014-Aug-25 14:33N 32°04' E 120°27'3 3.1
2014-Aug-25 13:33N 32°04' E 120°31'3 3.1
2014-Aug-25 12:33N 32°02' E 120°34'3 3.3
2014-Aug-25 11:33N 32°00' E 120°37'1466.0
2014-Aug-25 11:21N 32°00' E 120°21'1721.2
2014-Aug-25 10:32N 32°00' E 120°41'14973.9
2014-Aug-25 08:31N 29°50' E 122°06'6 6.4
2014-Aug-25 07:31N 29°56' E 122°05'10120.2
2014-Aug-25 02:32N 31°31' E 121°25'6 5.7
2014-Aug-25 01:33N 31°27' E 121°29'4 3.6
2014-Aug-25 00:30N 31°25' E 121°33'0 0.0
2014-Aug-24 23:33N 31°25' E 121°33'0 0.0
2014-Aug-24 22:32N 31°25' E 121°33'0 0.0
2014-Aug-24 21:34N 31°25' E 121°33'0 0.0
2014-Aug-24 20:33N 31°25' E 121°33'1 1.3
2014-Aug-24 19:33N 31°24' E 121°32'2 2.2
2014-Aug-24 18:33N 31°22' E 121°30'0 0.0
2014-Aug-24 17:33N 31°22' E 121°30'0 0.0
2014-Aug-24 16:33N 31°22' E 121°30'0 0.0
2014-Aug-24 15:33N 31°22' E 121°30'722174.3
2014-Aug-24 15:31N 30°12' E 121°49'0 0.0
2014-Aug-24 14:33N 30°12' E 121°49'7219904.6
2014-Aug-24 14:33N 31°22' E 121°30'6 5.7
2014-Aug-24 13:32N 31°28' E 121°28'7615141.7
2014-Aug-24 13:32N 30°14' E 121°48'7271.2
2014-Aug-24 12:31N 31°25' E 121°33'0 0.1
2014-Aug-24 11:34N 31°25' E 121°33'62294.2
2014-Aug-24 11:21N 30°28' E 122°00'6272.1
2014-Aug-24 10:29N 31°25' E 121°33'612457.1
2014-Aug-24 10:28N 30°32' E 122°09'1315109.5
2014-Aug-24 10:26N 31°56' E 120°12'128146.2
2014-Aug-24 09:33N 30°40' E 122°14'57901.4
2014-Aug-24 09:30N 31°25' E 121°33'5357.0
2014-Aug-24 08:33N 30°49' E 122°19'536830.9
2014-Aug-24 08:33N 31°24' E 121°32'226.6
2014-Aug-24 08:29N 31°23' E 121°30'5760.8
2014-Aug-24 07:33N 30°53' E 122°27'11658.0
2014-Aug-24 05:33N 32°00' E 120°36'7 7.3
2014-Aug-24 04:33N 32°04' E 120°29'4416591.7
2014-Aug-24 04:29N 39°08' E 117°57'440225.3
2014-Aug-24 02:31N 31°59' E 120°01'4 4.3
2014-Aug-24 01:33N 31°58' E 120°05'5 4.6
2014-Aug-24 00:33N 31°57' E 120°11'4 4.3
2014-Aug-23 23:33N 31°57' E 120°16'5 4.8
2014-Aug-23 22:33N 31°60' E 120°20'4 4.3
2014-Aug-23 21:34N 32°01' E 120°25'6748462.1
2014-Aug-23 21:33N 31°23' E 121°30'6564.6
2014-Aug-23 20:33N 32°02' E 120°30'663447.0
2014-Aug-23 20:32N 31°24' E 121°34'6162.1
2014-Aug-23 19:33N 32°01' E 120°36'44627.8
2014-Aug-23 03:32N 39°10' E 118°07'7 6.8
2014-Aug-23 02:33N 39°08' E 117°59'4 4.2
2014-Aug-23 01:33N 39°05' E 117°56'2 2.0
2014-Aug-23 00:33N 39°03' E 117°55'3 3.4
2014-Aug-22 23:33N 38°59' E 117°56'6 2.9
2014-Aug-22 21:33N 38°56' E 117°50'4362154.8
2014-Aug-22 21:21N 32°04' E 120°45'438149.2
2014-Aug-22 18:25N 39°03' E 118°11'5 5.9
2014-Aug-22 17:32N 39°08' E 118°08'4 4.3
2014-Aug-22 16:33N 39°12' E 118°08'25975.3
2014-Aug-22 13:07N 36°53' E 122°45'610.0
2014-Aug-22 12:31N 36°59' E 122°46'24058.5
2014-Aug-22 08:25N 38°49' E 118°16'2466.0
2014-Aug-22 08:04N 39°12' E 118°08'228448.0
2014-Aug-22 07:33N 37°37' E 122°32'228821463.9
2014-Aug-22 07:33N 39°10' E 118°07'4411052.3
2014-Aug-22 07:08N 32°03' E 120°25'5 7.0
2014-Aug-22 06:25N 32°04' E 120°31'3511372.9
2014-Aug-22 06:09N 37°44' E 122°20'229379.1
2014-Aug-22 05:33N 38°58' E 117°43'2234870.6
2014-Aug-22 05:30N 37°48' E 122°14'355865.1
2014-Aug-22 05:06N 32°00' E 120°42'438804.9
2014-Aug-22 04:33N 38°56' E 117°51'14332.0
2014-Aug-22 04:31N 39°08' E 118°00'1236.8
2014-Aug-22 04:11N 38°57' E 118°06'1015.8
2014-Aug-22 03:32N 38°54' E 117°53'2 1.9
2014-Aug-22 02:31N 38°52' E 117°54'2 2.0
2014-Aug-22 01:33N 38°51' E 117°52'1 0.9
2014-Aug-22 00:29N 38°52' E 117°53'483417.7
2014-Aug-21 23:20N 31°22' E 121°30'484597.3
2014-Aug-21 22:31N 38°53' E 117°54'482434073.6
2014-Aug-21 22:31N 31°24' E 121°31'6 5.9
2014-Aug-21 21:30N 31°28' E 121°26'4791746.6
2014-Aug-21 21:14N 38°55' E 117°54'5 7.1
2014-Aug-21 20:33N 38°56' E 117°48'48759.4
2014-Aug-21 12:21N 31°24' E 121°30'534134.6
2014-Aug-21 08:23N 40°18' E 121°55'8 9.1
2014-Aug-21 07:33N 40°18' E 122°05'20753289.2
2014-Aug-21 07:33N 39°04' E 117°53'10107.9
2014-Aug-21 07:28N 38°59' E 117°43'1719.3
2014-Aug-21 06:33N 39°08' E 118°02'163860.2
2014-Aug-21 06:33N 38°57' E 117°47'21536822.6
2014-Aug-21 06:33N 40°18' E 122°05'5562204.8
2014-Aug-21 06:18N 31°03' E 121°29'556744.0
2014-Aug-21 05:33N 40°18' E 122°05'211987.5
2014-Aug-21 05:20N 38°54' E 117°54'2 2.6
2014-Aug-21 04:33N 38°52' E 117°53'213255086.8
2014-Aug-21 04:33N 40°18' E 122°05'5567253.6
2014-Aug-21 04:28N 31°03' E 121°29'5141707.6
2014-Aug-21 04:10N 39°10' E 118°07'2233.1
2014-Aug-21 03:30N 38°51' E 117°52'21313969.4
2014-Aug-21 03:29N 40°18' E 122°05'55273650.4
2014-Aug-21 03:29N 31°07' E 121°27'50942646.0
2014-Aug-21 03:28N 39°07' E 118°01'1818.6
2014-Aug-21 02:30N 38°50' E 117°53'21316003.3
2014-Aug-21 02:29N 40°18' E 122°05'0 0.0
2014-Aug-21 00:23N 40°18' E 122°05'0 0.0
2014-Aug-20 23:29N 40°18' E 122°05'0 0.0
2014-Aug-20 22:29N 40°18' E 122°05'502537.7
2014-Aug-20 21:33N 32°01' E 120°44'4346797.6
2014-Aug-20 21:29N 38°53' E 117°55'21169039.3
2014-Aug-20 21:29N 40°18' E 122°05'214229.2
2014-Aug-20 20:33N 38°56' E 117°48'872510469965.2
2014-Aug-20 20:33N 41°19' W 072°21'9304198189.5
2014-Aug-20 20:30N 31°60' E 120°36'50324486.2
2014-Aug-20 20:29N 40°18' E 122°05'88319478.6
2014-Aug-20 19:33N 41°18' W 072°21'9297656291.6
2014-Aug-20 19:32N 32°02' E 120°29'5029321.1
2014-Aug-20 19:29N 40°18' E 122°05'88329490.7
2014-Aug-20 18:33N 41°18' W 072°21'883251613.4
2014-Aug-20 18:23N 40°18' E 122°05'883110654.6
2014-Aug-20 17:33N 41°18' W 072°21'8831124679.2
2014-Aug-20 17:29N 40°18' E 122°05'88309424.5
2014-Aug-20 16:33N 41°19' W 072°21'8830140039.1
2014-Aug-20 16:29N 40°18' E 122°05'88299522.4
2014-Aug-20 15:33N 41°20' W 072°21'882950695.0
2014-Aug-20 15:23N 40°18' E 122°05'882910472.1
2014-Aug-20 14:32N 41°22' W 072°23'8829327658.4
2014-Aug-20 14:31N 40°18' E 122°05'213906.9
2014-Aug-20 14:17N 38°52' E 117°53'873212128.1
2014-Aug-20 13:33N 41°20' W 072°21'8829211902.9
2014-Aug-20 13:31N 40°18' E 122°05'2096470.9
2014-Aug-20 13:29N 38°57' E 117°56'433458.0
2014-Aug-20 12:32N 32°02' E 120°27'50222612.2
2014-Aug-20 12:31N 40°18' E 122°05'2034734.1
2014-Aug-20 12:28N 39°03' E 118°01'439475.5
2014-Aug-20 11:33N 31°59' E 120°21'50614462.8
2014-Aug-20 11:31N 40°18' E 122°05'5341405.3
2014-Aug-20 11:08N 31°24' E 121°30'72125.3
2014-Aug-20 10:33N 31°56' E 120°14'43821595.8
2014-Aug-20 10:32N 38°57' E 117°47'2158791.2
2014-Aug-20 10:31N 40°18' E 122°05'511521.2
2014-Aug-20 09:32N 31°57' E 120°06'51123566.4
2014-Aug-20 09:31N 40°18' E 122°05'509511.8
2014-Aug-20 08:31N 31°59' E 119°59'50922614.9
2014-Aug-20 08:30N 40°18' E 122°05'  

Dump ship's entire track history